createdAt,value
2023-02-07T00:00:37.475Z,29.26
2023-02-07T00:03:07.475Z,28.96
2023-02-07T00:05:39.945Z,28.60
2023-02-07T00:08:09.326Z,28.47
2023-02-07T00:10:38.422Z,28.43
2023-02-07T00:13:07.514Z,28.34
2023-02-07T00:15:37.816Z,28.29
2023-02-07T00:18:07.506Z,28.30
2023-02-07T00:20:37.522Z,28.24
2023-02-07T00:23:07.584Z,28.25
2023-02-07T00:25:37.763Z,28.19
2023-02-07T00:28:07.709Z,28.23
2023-02-07T00:30:37.852Z,28.14
2023-02-07T00:33:07.596Z,28.13
2023-02-07T00:35:39.498Z,28.15
2023-02-07T00:38:09.125Z,28.08
2023-02-07T00:40:38.745Z,28.09
2023-02-07T00:43:08.539Z,28.05
2023-02-07T00:45:39.017Z,28.08
2023-02-07T00:48:08.600Z,28.09
2023-02-07T00:50:38.043Z,27.98
2023-02-07T00:53:07.881Z,27.98
2023-02-07T00:55:37.954Z,27.95
2023-02-07T00:58:08.068Z,27.98
2023-02-07T01:00:37.850Z,27.96
2023-02-07T01:03:07.683Z,27.97
2023-02-07T01:05:37.921Z,27.93
2023-02-07T01:08:07.743Z,27.95
2023-02-07T01:10:37.799Z,27.98
2023-02-07T01:13:07.666Z,27.90
2023-02-07T01:15:40.362Z,27.90
2023-02-07T01:18:09.755Z,27.88
2023-02-07T01:20:38.823Z,27.89
2023-02-07T01:23:08.647Z,27.85
2023-02-07T01:25:39.526Z,27.78
2023-02-07T01:28:08.902Z,27.79
2023-02-07T01:30:40.660Z,27.75
2023-02-07T01:33:10.023Z,27.79
2023-02-07T01:35:40.254Z,27.71
2023-02-07T01:38:09.534Z,27.70
2023-02-07T01:40:38.988Z,27.68
2023-02-07T01:43:08.146Z,27.71
2023-02-07T01:45:39.248Z,27.64
2023-02-07T01:48:12.852Z,27.64
2023-02-07T01:50:44.724Z,27.67
2023-02-07T01:53:13.854Z,27.66
2023-02-07T01:55:42.982Z,27.64
2023-02-07T01:58:12.220Z,27.64
2023-02-07T02:00:41.284Z,27.66
2023-02-07T02:03:10.445Z,27.68
2023-02-07T02:05:42.263Z,27.64
2023-02-07T02:08:11.504Z,27.61
2023-02-07T02:10:46.295Z,27.56
2023-02-07T02:13:28.961Z,27.59
2023-02-07T02:16:02.776Z,27.62
2023-02-07T02:18:39.180Z,27.58
2023-02-07T02:21:21.951Z,27.62
2023-02-07T02:24:07.686Z,27.64
2023-02-07T02:26:54.324Z,27.59
2023-02-07T02:29:41.317Z,27.63
2023-02-07T02:32:11.867Z,27.62
2023-02-07T02:34:42.299Z,27.63
2023-02-07T02:37:18.901Z,27.63
2023-02-07T02:39:55.279Z,27.65
2023-02-07T02:42:31.924Z,27.62
2023-02-07T02:45:02.283Z,27.65
2023-02-07T02:47:31.571Z,27.63
2023-02-07T02:50:00.741Z,27.90
2023-02-07T02:52:49.617Z,28.22
2023-02-07T02:55:03.430Z,28.31
2023-02-07T02:57:34.645Z,28.26
2023-02-07T03:00:08.485Z,28.29
2023-02-07T03:02:39.288Z,28.35
2023-02-07T03:05:10.530Z,28.33
2023-02-07T03:07:50.294Z,28.35
2023-02-07T03:10:23.631Z,28.37
2023-02-07T03:13:03.123Z,28.44
2023-02-07T03:15:36.782Z,28.42
2023-02-07T03:18:17.013Z,28.45
2023-02-07T03:20:50.233Z,28.51
2023-02-07T03:23:19.399Z,28.48
2023-02-07T03:25:48.603Z,28.53
2023-02-07T03:28:17.862Z,28.57
2023-02-07T03:30:48.389Z,28.47
2023-02-07T03:33:17.528Z,28.45
2023-02-07T03:35:51.193Z,28.53
2023-02-07T03:38:20.310Z,28.53
2023-02-07T03:40:49.861Z,28.41
2023-02-07T03:43:20.516Z,28.52
2023-02-07T03:45:49.670Z,28.57
2023-02-07T03:48:18.757Z,28.44
2023-02-07T03:50:49.430Z,28.53
2023-02-07T03:53:18.646Z,28.58
2023-02-07T03:55:47.740Z,28.51
2023-02-07T03:58:16.907Z,28.52
2023-02-07T04:00:45.983Z,28.52
2023-02-07T04:03:18.831Z,28.63
2023-02-07T04:05:48.244Z,28.65
2023-02-07T04:08:17.297Z,28.47
2023-02-07T04:10:46.389Z,28.64
2023-02-07T04:13:15.558Z,28.59
2023-02-07T04:15:45.013Z,28.58
2023-02-07T04:18:14.088Z,28.48
2023-02-07T04:20:43.215Z,28.57
2023-02-07T04:23:12.285Z,28.60
2023-02-07T04:25:41.391Z,28.65
2023-02-07T04:28:10.591Z,28.61
2023-02-07T04:30:42.889Z,28.63
2023-02-07T04:33:14.274Z,28.71
2023-02-07T04:35:45.702Z,28.60
2023-02-07T04:38:15.071Z,28.69
2023-02-07T04:40:44.146Z,28.65
2023-02-07T04:43:13.394Z,29.33
2023-02-07T04:45:42.596Z,28.49
2023-02-07T04:48:11.806Z,28.11
2023-02-07T04:50:40.878Z,28.00
2023-02-07T04:53:09.980Z,27.92
2023-02-07T04:55:39.828Z,27.87
2023-02-07T04:58:09.457Z,27.80
2023-02-07T05:00:39.686Z,27.83
2023-02-07T05:03:09.457Z,27.80
2023-02-07T05:05:43.731Z,27.80
2023-02-07T05:08:12.764Z,27.80
2023-02-07T05:10:41.944Z,27.76
2023-02-07T05:13:11.074Z,27.76
2023-02-07T05:15:40.529Z,27.73
2023-02-07T05:18:09.892Z,27.71
2023-02-07T05:20:39.447Z,27.74
2023-02-07T05:23:08.901Z,27.71
2023-02-07T05:25:38.952Z,27.74
2023-02-07T05:28:08.597Z,27.71
2023-02-07T05:30:38.724Z,27.71
2023-02-07T05:33:07.976Z,27.71
2023-02-07T05:35:40.495Z,27.69
2023-02-07T05:38:10.416Z,27.71
2023-02-07T05:40:39.764Z,27.69
2023-02-07T05:43:09.537Z,27.70
2023-02-07T05:45:39.672Z,27.69
2023-02-07T05:48:09.622Z,27.71
2023-02-07T05:50:38.718Z,27.70
2023-02-07T05:53:09.011Z,27.68
2023-02-07T05:55:39.074Z,27.70
2023-02-07T05:58:10.970Z,27.72
2023-02-07T06:00:42.464Z,27.70
2023-02-07T06:03:12.101Z,27.67
2023-02-07T06:05:41.200Z,27.67
2023-02-07T06:08:53.614Z,27.71
2023-02-07T06:11:22.865Z,27.71
2023-02-07T06:16:48.956Z,27.74
2023-02-07T06:19:18.125Z,27.75
2023-02-07T06:21:47.283Z,27.72
2023-02-07T06:24:16.788Z,27.72
2023-02-07T06:27:09.286Z,27.74
2023-02-07T06:29:38.744Z,27.76
2023-02-07T06:32:24.682Z,27.73
2023-02-07T06:34:53.867Z,27.77
2023-02-07T06:37:22.921Z,27.81
2023-02-07T06:39:52.080Z,27.75
2023-02-07T06:42:21.228Z,27.75
2023-02-07T06:44:50.278Z,27.78
2023-02-07T06:47:20.872Z,27.82
2023-02-07T06:49:50.042Z,27.80
2023-02-07T06:52:19.406Z,27.80
2023-02-07T06:54:48.554Z,27.79
2023-02-07T06:57:17.708Z,27.81
2023-02-07T06:59:47.016Z,27.80
2023-02-07T07:02:16.119Z,27.78
2023-02-07T07:04:45.977Z,27.83
2023-02-07T07:07:15.630Z,27.83
2023-02-07T07:09:45.061Z,27.84
2023-02-07T07:12:14.260Z,27.83
2023-02-07T07:14:43.426Z,27.85
2023-02-07T07:17:12.589Z,27.87
2023-02-07T07:19:47.813Z,27.86
2023-02-07T07:22:16.977Z,27.89
2023-02-07T07:24:46.050Z,27.85
2023-02-07T07:27:15.147Z,27.86
2023-02-07T07:29:44.305Z,27.88
2023-02-07T07:32:28.533Z,27.87
2023-02-07T07:34:46.259Z,27.85
2023-02-07T07:40:41.523Z,27.91
2023-02-07T07:43:17.077Z,27.84
2023-02-07T07:45:45.671Z,27.83
2023-02-07T07:51:18.314Z,27.88
2023-02-07T07:54:05.768Z,27.89
2023-02-07T07:56:36.622Z,27.89
2023-02-07T07:59:44.498Z,27.90
2023-02-07T08:02:15.398Z,27.86
2023-02-07T08:04:49.267Z,27.89
2023-02-07T08:07:18.452Z,27.94
2023-02-07T08:09:48.971Z,27.87
2023-02-07T08:12:18.067Z,27.92
2023-02-07T08:14:47.154Z,27.85
2023-02-07T08:17:16.452Z,27.87
2023-02-07T08:19:45.599Z,27.94
2023-02-07T08:22:15.531Z,27.85
2023-02-07T08:24:44.678Z,27.91
2023-02-07T08:29:58.078Z,27.85
2023-02-07T08:32:27.173Z,27.87
2023-02-07T08:34:56.221Z,27.93
2023-02-07T08:37:30.266Z,27.93
2023-02-07T08:39:59.645Z,27.90
2023-02-07T08:42:47.304Z,27.93
2023-02-07T08:45:16.938Z,27.92
2023-02-07T08:48:08.953Z,27.95
2023-02-07T08:50:39.303Z,27.93
2023-02-07T08:53:09.035Z,27.94
2023-02-07T08:55:55.106Z,27.93
2023-02-07T08:58:19.813Z,27.95
2023-02-07T09:00:48.896Z,27.92
2023-02-07T09:03:18.035Z,27.91
2023-02-07T09:05:47.321Z,27.91
2023-02-07T09:08:16.523Z,27.93
2023-02-07T09:13:52.152Z,27.94
2023-02-07T09:16:21.515Z,27.96
2023-02-07T09:21:58.791Z,27.99
2023-02-07T09:24:28.010Z,27.95
2023-02-07T09:30:01.145Z,27.95
2023-02-07T09:35:28.312Z,27.92
2023-02-07T09:38:04.585Z,27.89
2023-02-07T09:40:33.771Z,27.90
2023-02-07T09:45:59.520Z,27.95
2023-02-07T09:51:24.678Z,27.95
2023-02-07T09:56:54.569Z,27.92
2023-02-07T10:02:36.145Z,27.92
2023-02-07T10:05:06.895Z,27.92
2023-02-07T10:07:39.241Z,27.91
2023-02-07T10:10:13.316Z,27.91
2023-02-07T10:12:43.875Z,27.90
2023-02-07T10:15:20.800Z,27.90
2023-02-07T10:17:51.699Z,27.92
2023-02-07T10:20:22.369Z,27.92
2023-02-07T10:25:53.072Z,27.91
2023-02-07T10:31:31.700Z,27.85
2023-02-07T10:34:02.148Z,27.84
2023-02-07T10:39:34.039Z,27.75
2023-02-07T10:42:06.666Z,27.76
2023-02-07T10:44:35.728Z,27.73
2023-02-07T10:47:07.725Z,27.73
2023-02-07T10:49:38.320Z,27.68
2023-02-07T10:52:24.357Z,27.62
2023-02-07T10:55:00.168Z,27.64
2023-02-07T10:57:29.570Z,27.60
2023-02-07T11:00:06.238Z,27.61
2023-02-07T11:02:40.450Z,27.66
2023-02-07T11:05:20.800Z,27.66
2023-02-07T11:08:00.346Z,27.71
2023-02-07T11:10:36.747Z,27.77
2023-02-07T11:13:46.236Z,27.67
2023-02-07T11:16:15.581Z,27.72
2023-02-07T11:18:45.956Z,27.68
2023-02-07T11:21:22.389Z,27.73
2023-02-07T11:23:53.213Z,27.67
2023-02-07T11:26:24.142Z,27.75
2023-02-07T11:29:19.595Z,27.71
2023-02-07T11:31:47.885Z,27.66
2023-02-07T11:34:29.805Z,27.65
2023-02-07T11:37:43.073Z,27.67
2023-02-07T11:40:21.013Z,27.71
2023-02-07T11:43:22.706Z,27.74
2023-02-07T11:45:28.106Z,27.78
2023-02-07T11:47:57.651Z,27.74
2023-02-07T11:50:29.694Z,27.66
2023-02-07T11:56:33.268Z,27.71
2023-02-07T11:59:36.993Z,27.73
2023-02-07T12:02:04.590Z,27.71
2023-02-07T12:04:35.469Z,27.64
2023-02-07T12:07:08.204Z,27.62
2023-02-07T12:09:38.645Z,27.66
2023-02-07T12:12:09.140Z,27.67
2023-02-07T12:14:46.013Z,27.63
2023-02-07T12:17:16.031Z,27.61
2023-02-07T12:19:46.626Z,27.66
2023-02-07T12:22:17.222Z,27.73
2023-02-07T12:24:55.088Z,27.85
2023-02-07T12:27:33.039Z,28.16
2023-02-07T12:30:20.009Z,28.77
2023-02-07T12:36:26.971Z,29.49
2023-02-07T12:39:03.380Z,29.45
2023-02-07T12:41:33.920Z,29.36
2023-02-07T12:44:06.192Z,29.27
2023-02-07T12:46:39.674Z,29.26
2023-02-07T12:52:19.240Z,29.24
2023-02-07T12:54:59.807Z,29.25
2023-02-07T12:57:33.582Z,29.25
2023-02-07T13:03:13.156Z,29.33
2023-02-07T13:09:08.376Z,29.38
2023-02-07T13:11:44.889Z,29.39
2023-02-07T13:14:19.614Z,29.38
2023-02-07T13:16:53.086Z,29.38
2023-02-07T13:19:23.640Z,29.39
2023-02-07T13:21:56.476Z,29.43
2023-02-07T13:24:25.639Z,29.42
2023-02-07T13:26:56.276Z,29.49
2023-02-07T13:29:25.516Z,29.50
2023-02-07T13:31:55.920Z,29.47
2023-02-07T13:34:25.434Z,29.48
2023-02-07T13:36:58.905Z,29.47
2023-02-07T13:39:28.593Z,29.47
2023-02-07T13:42:16.720Z,29.42
2023-02-07T13:45:06.274Z,29.49
2023-02-07T13:47:37.133Z,29.46
2023-02-07T13:50:20.136Z,29.49
2023-02-07T13:52:50.671Z,29.46
2023-02-07T13:55:21.377Z,29.16
2023-02-07T13:58:08.059Z,29.00
2023-02-07T14:00:40.731Z,28.93
2023-02-07T14:03:12.286Z,28.86
2023-02-07T14:05:43.439Z,28.83
2023-02-07T14:08:21.549Z,28.78
2023-02-07T14:10:55.785Z,28.68
2023-02-07T14:13:32.629Z,28.65
2023-02-07T14:16:08.477Z,28.61
2023-02-07T14:18:44.575Z,28.63
2023-02-07T14:21:25.733Z,28.54
2023-02-07T14:24:09.551Z,28.53
2023-02-07T14:26:44.753Z,28.54
2023-02-07T14:29:28.184Z,28.50
2023-02-07T14:32:01.571Z,28.48
2023-02-07T14:34:33.602Z,28.46
2023-02-07T14:37:03.171Z,28.43
2023-02-07T14:39:32.953Z,28.40
2023-02-07T14:42:06.996Z,28.41
2023-02-07T14:44:36.855Z,28.37
2023-02-07T14:47:08.628Z,28.37
2023-02-07T14:52:33.736Z,28.32
2023-02-07T14:55:23.720Z,28.32
2023-02-07T14:57:54.344Z,28.27
2023-02-07T15:00:24.910Z,28.24
2023-02-07T15:02:57.659Z,28.25
2023-02-07T15:05:30.964Z,28.24
2023-02-07T15:08:10.223Z,28.24
2023-02-07T15:10:43.162Z,28.22
2023-02-07T15:13:33.694Z,28.20
2023-02-07T15:16:06.210Z,28.21
2023-02-07T15:18:42.273Z,28.18
2023-02-07T15:21:22.295Z,28.18
2023-02-07T15:23:52.962Z,28.15
2023-02-07T15:26:22.098Z,28.19
2023-02-07T15:28:52.884Z,28.22
2023-02-07T15:31:22.139Z,28.22
2023-02-07T15:33:52.962Z,28.22
2023-02-07T15:36:32.518Z,28.27
2023-02-07T15:39:02.423Z,28.31
2023-02-07T15:41:36.553Z,28.35
2023-02-07T15:44:09.385Z,28.39
2023-02-07T15:46:40.640Z,28.43
2023-02-07T15:49:11.108Z,28.46
2023-02-07T15:51:42.156Z,28.55
2023-02-07T15:54:14.048Z,28.56
2023-02-07T15:56:45.800Z,28.58
2023-02-07T15:59:16.630Z,28.54
2023-02-07T16:01:46.385Z,28.44
2023-02-07T16:04:15.893Z,28.42
2023-02-07T16:06:46.559Z,28.36
2023-02-07T16:09:17.010Z,28.34
2023-02-07T16:11:46.147Z,28.30
2023-02-07T16:14:16.883Z,28.32
2023-02-07T16:16:53.058Z,28.28
2023-02-07T16:19:29.928Z,28.25
2023-02-07T16:22:08.106Z,28.21
2023-02-07T16:24:37.534Z,28.19
2023-02-07T16:27:06.876Z,28.19
2023-02-07T16:29:37.257Z,28.15
2023-02-07T16:32:06.766Z,28.14
2023-02-07T16:34:35.905Z,28.14
2023-02-07T16:37:05.486Z,28.13
2023-02-07T16:39:36.954Z,28.15
2023-02-07T16:42:11.863Z,28.11
2023-02-07T16:44:44.061Z,28.11
2023-02-07T16:47:14.143Z,28.10
2023-02-07T16:49:44.268Z,28.08
2023-02-07T16:52:13.554Z,28.09
2023-02-07T16:54:42.710Z,28.07
2023-02-07T16:57:12.284Z,28.06
2023-02-07T16:59:42.432Z,28.06
2023-02-07T17:02:17.852Z,28.04
2023-02-07T17:04:47.035Z,28.04
2023-02-07T17:07:17.181Z,28.02
2023-02-07T17:09:47.691Z,28.03
2023-02-07T17:12:16.831Z,28.03
2023-02-07T17:14:46.187Z,28.01
2023-02-07T17:17:15.326Z,28.02
2023-02-07T17:19:45.804Z,28.06
2023-02-07T17:22:15.364Z,28.08
2023-02-07T17:24:44.496Z,28.11
2023-02-07T17:27:13.580Z,28.13
2023-02-07T17:29:42.773Z,28.19
2023-02-07T17:32:12.633Z,28.23
2023-02-07T17:34:42.458Z,28.25
2023-02-07T17:37:11.669Z,28.34
2023-02-07T17:39:41.646Z,28.36
2023-02-07T17:42:11.685Z,28.41
2023-02-07T17:44:42.185Z,28.46
2023-02-07T17:47:11.559Z,28.53
2023-02-07T17:49:41.620Z,28.60
2023-02-07T17:52:13.002Z,28.70
2023-02-07T17:54:46.710Z,28.50
2023-02-07T17:57:17.971Z,28.46
2023-02-07T17:59:47.147Z,28.42
2023-02-07T18:02:16.348Z,28.38
2023-02-07T18:04:45.653Z,28.36
2023-02-07T18:07:18.014Z,28.33
2023-02-07T18:09:47.153Z,28.33
2023-02-07T18:12:18.793Z,28.31
2023-02-07T18:14:47.873Z,28.30
2023-02-07T18:17:17.062Z,28.26
2023-02-07T18:19:46.386Z,28.25
2023-02-07T18:22:15.484Z,28.24
2023-02-07T18:24:44.576Z,28.24
2023-02-07T18:27:15.124Z,28.22
2023-02-07T18:29:44.781Z,28.23
2023-02-07T18:32:13.921Z,28.24
2023-02-07T18:34:43.920Z,28.24
2023-02-07T18:37:13.142Z,28.23
2023-02-07T18:39:42.544Z,28.21
2023-02-07T18:42:13.761Z,28.21
2023-02-07T18:45:05.935Z,28.21
2023-02-07T18:47:35.074Z,28.21
2023-02-07T18:50:27.791Z,28.17
2023-02-07T18:52:41.487Z,29.27
2023-02-07T18:55:11.687Z,29.75
2023-02-07T18:57:41.579Z,30.40
2023-02-07T19:00:11.935Z,31.22
2023-02-07T19:02:41.630Z,31.23
2023-02-07T19:05:11.528Z,30.77
2023-02-07T19:07:41.514Z,30.70
2023-02-07T19:10:13.061Z,30.57
2023-02-07T19:12:42.279Z,30.74
2023-02-07T19:15:11.623Z,31.06
2023-02-07T19:17:41.777Z,31.34
2023-02-07T19:20:11.918Z,31.18
2023-02-07T19:22:41.549Z,31.38
2023-02-07T19:25:11.490Z,31.45
2023-02-07T19:27:41.615Z,31.45
2023-02-07T19:30:11.848Z,31.44
2023-02-07T19:32:41.516Z,31.40
2023-02-07T19:35:11.616Z,31.48
2023-02-07T19:37:41.571Z,31.52
2023-02-07T19:40:11.779Z,31.39
2023-02-07T19:42:41.668Z,31.37
2023-02-07T19:45:11.782Z,31.49
2023-02-07T19:47:41.656Z,31.59
2023-02-07T19:50:12.425Z,31.61
2023-02-07T19:52:43.787Z,31.58
2023-02-07T19:55:14.783Z,31.63
2023-02-07T19:57:44.852Z,31.55
2023-02-07T20:00:14.447Z,31.49
2023-02-07T20:02:43.609Z,31.45
2023-02-07T20:05:15.685Z,31.48
2023-02-07T20:07:44.881Z,31.59
2023-02-07T20:10:13.971Z,31.68
2023-02-07T20:12:43.123Z,31.65
2023-02-07T20:15:12.586Z,31.68
2023-02-07T20:17:42.577Z,31.60
2023-02-07T20:20:12.690Z,31.46
2023-02-07T20:22:42.559Z,31.40
2023-02-07T20:25:12.536Z,31.46
2023-02-07T20:27:42.698Z,31.61
2023-02-07T20:30:12.946Z,31.67
2023-02-07T20:32:42.619Z,31.71
2023-02-07T20:35:12.556Z,31.70
2023-02-07T20:37:42.626Z,31.69
2023-02-07T20:40:12.860Z,31.59
2023-02-07T20:42:42.579Z,31.45
2023-02-07T20:45:12.703Z,31.43
2023-02-07T20:47:42.571Z,31.54
2023-02-07T20:50:14.172Z,31.59
2023-02-07T20:52:43.576Z,31.61
2023-02-07T20:55:15.728Z,31.64
2023-02-07T20:57:44.792Z,31.64
2023-02-07T21:00:15.998Z,31.61
2023-02-07T21:02:45.166Z,31.46
2023-02-07T21:05:14.376Z,31.41
2023-02-07T21:07:43.572Z,31.51
2023-02-07T21:10:13.541Z,31.60
2023-02-07T21:12:43.545Z,31.66
2023-02-07T21:15:13.628Z,31.66
2023-02-07T21:17:43.547Z,31.65
2023-02-07T21:20:13.625Z,31.55
2023-02-07T21:22:43.631Z,31.64
2023-02-07T21:25:13.580Z,31.60
2023-02-07T21:27:43.686Z,31.80
2023-02-07T21:30:13.911Z,32.05
2023-02-07T21:32:43.754Z,32.16
2023-02-07T21:35:13.645Z,32.29
2023-02-07T21:37:43.755Z,32.29
2023-02-07T21:40:13.679Z,32.08
2023-02-07T21:42:44.655Z,31.72
2023-02-07T21:45:13.857Z,31.46
2023-02-07T21:47:43.672Z,31.30
2023-02-07T21:50:13.357Z,31.18
2023-02-07T21:52:42.760Z,31.11
2023-02-07T21:55:12.115Z,31.05
2023-02-07T21:57:42.006Z,31.01
2023-02-07T22:00:13.192Z,31.03
2023-02-07T22:02:42.989Z,31.06
2023-02-07T22:05:12.934Z,31.10
2023-02-07T22:07:42.912Z,31.15
2023-02-07T22:10:13.057Z,31.15
2023-02-07T22:12:42.911Z,31.19
2023-02-07T22:15:12.918Z,31.21
2023-02-07T22:17:43.054Z,31.21
2023-02-07T22:20:13.122Z,31.24
2023-02-07T22:22:43.128Z,31.24
2023-02-07T22:25:13.051Z,31.26
2023-02-07T22:27:43.012Z,31.27
2023-02-07T22:30:13.291Z,31.27
2023-02-07T22:32:43.066Z,31.08
2023-02-07T22:35:13.040Z,30.94
2023-02-07T22:37:43.012Z,30.81
2023-02-07T22:40:13.393Z,30.71
2023-02-07T22:42:43.202Z,30.65
2023-02-07T22:45:13.072Z,30.61
2023-02-07T22:47:42.211Z,30.54
2023-02-07T22:50:12.345Z,30.50
2023-02-07T22:52:42.160Z,30.44
2023-02-07T22:55:12.192Z,30.41
2023-02-07T22:57:42.163Z,30.38
2023-02-07T23:00:12.579Z,30.36
2023-02-07T23:02:42.206Z,30.33
2023-02-07T23:05:12.176Z,30.28
2023-02-07T23:07:42.139Z,30.26
2023-02-07T23:10:12.255Z,30.21
2023-02-07T23:12:42.335Z,30.20
2023-02-07T23:15:12.206Z,30.16
2023-02-07T23:17:42.693Z,30.15
2023-02-07T23:20:12.190Z,30.11
2023-02-07T23:22:42.259Z,30.09
2023-02-07T23:25:12.240Z,30.07
2023-02-07T23:27:42.194Z,30.05
2023-02-07T23:30:12.578Z,30.02
2023-02-07T23:32:44.679Z,30.01
2023-02-07T23:35:14.422Z,29.99
2023-02-07T23:37:43.512Z,29.97
2023-02-07T23:40:13.282Z,29.95
2023-02-07T23:42:43.096Z,29.95
2023-02-07T23:45:12.240Z,29.89
2023-02-07T23:47:42.326Z,29.89
2023-02-07T23:50:12.244Z,29.89
2023-02-07T23:52:41.542Z,29.86
2023-02-07T23:55:11.420Z,29.86
2023-02-07T23:57:41.395Z,29.80
